This is the latest recevied weather packets stored in our database for station/object WBKK. If no packets are shown the sender has not sent any weather packets the latest 10 day(s).
| Time | Temp. | Humidity | Pressure | Rain* | Wind** | Luminosity | Snow |
|---|---|---|---|---|---|---|---|
| 1777712442 | 25.56° C | 94% | 1006 hPa | - | - | - | - |
| 1777711257 | 25.56° C | 94% | 1006 hPa | - | - | - | - |
| 1777709520 | 25.56° C | 94% | 1006 hPa | - | - | - | - |
| 1777707653 | 30° C | 79% | 1006 hPa | - | - | - | - |
| 1777706450 | 30.56° C | 79% | 1005 hPa | - | - | - | - |
| 1777705921 | 30.56° C | 79% | 1005 hPa | - | - | - | - |
| 1777704052 | 32.78° C | 70% | 1006 hPa | - | - | - | - |
| 1777702347 | 32.78° C | 70% | 1006 hPa | - | - | - | - |
| 1777700456 | 31.67° C | 74% | 1007 hPa | - | - | - | - |
| 1777698725 | 31.67° C | 74% | 1007 hPa | - | - | - | - |
| 1777696852 | 30.56° C | 79% | 1008 hPa | - | - | - | - |
| 1777695119 | 30.56° C | 79% | 1008 hPa | - | - | - | - |
| 1777693252 | 30.56° C | 74% | 1008 hPa | - | - | - | - |
| 1777691519 | 31.67° C | 74% | 1008 hPa | - | - | - | - |
| 1777689652 | 30.56° C | 74% | 1009 hPa | - | - | - | - |
| 1777687947 | 30.56° C | 74% | 1008 hPa | - | - | - | - |
| 1777686050 | 30° C | 74% | 1008 hPa | - | - | - | - |
| 1777684324 | 28.89° C | 79% | 1008 hPa | - | - | - | - |
| 1777682452 | 28.89° C | 79% | 1008 hPa | - | - | - | - |
| 1777680719 | 27.78° C | 83% | 1008 hPa | - | - | - | - |
| 1777678852 | 26.67° C | 83% | 1008 hPa | - | - | - | - |
| 1777677119 | 25.56° C | 88% | 1007 hPa | - | - | - | - |
| 1777675252 | 25° C | 94% | 1007 hPa | - | - | - | - |
| 1777673520 | 25° C | 94% | 1007 hPa | - | - | - | - |
| 1777671655 | 25° C | 94% | 1007 hPa | - | - | - | - |
* Rain since midnight (hover to see other rain measurements)
** Current wind speed in m/s (hover to see current wind gust speed)